sensor_id;sensor_type;location;lat;lon;timestamp;temperature;humidity
40622;DHT22;26324;52.040;11.528;2024-01-30T00:01:39;2.90;81.50
40622;DHT22;26324;52.040;11.528;2024-01-30T00:04:06;3.00;81.20
40622;DHT22;26324;52.040;11.528;2024-01-30T00:06:34;2.80;81.40
40622;DHT22;26324;52.040;11.528;2024-01-30T00:09:01;2.80;81.60
40622;DHT22;26324;52.040;11.528;2024-01-30T00:11:28;2.60;81.80
40622;DHT22;26324;52.040;11.528;2024-01-30T00:13:56;3.00;82.20
40622;DHT22;26324;52.040;11.528;2024-01-30T00:16:24;2.60;82.80
40622;DHT22;26324;52.040;11.528;2024-01-30T00:18:52;2.50;83.20
40622;DHT22;26324;52.040;11.528;2024-01-30T00:21:20;2.50;83.10
40622;DHT22;26324;52.040;11.528;2024-01-30T00:23:48;2.50;82.70
40622;DHT22;26324;52.040;11.528;2024-01-30T00:26:15;2.50;83.10
40622;DHT22;26324;52.040;11.528;2024-01-30T00:28:43;2.50;83.60
40622;DHT22;26324;52.040;11.528;2024-01-30T00:31:10;2.60;83.30
40622;DHT22;26324;52.040;11.528;2024-01-30T00:33:41;2.80;82.20
40622;DHT22;26324;52.040;11.528;2024-01-30T00:36:09;2.90;81.50
40622;DHT22;26324;52.040;11.528;2024-01-30T00:38:37;3.00;81.10
40622;DHT22;26324;52.040;11.528;2024-01-30T00:41:04;3.00;81.10
40622;DHT22;26324;52.040;11.528;2024-01-30T00:43:32;2.90;81.30
40622;DHT22;26324;52.040;11.528;2024-01-30T00:45:59;2.80;80.60
40622;DHT22;26324;52.040;11.528;2024-01-30T00:48:27;2.70;81.70
40622;DHT22;26324;52.040;11.528;2024-01-30T00:51:00;2.80;81.90
40622;DHT22;26324;52.040;11.528;2024-01-30T00:53:27;3.00;81.30
40622;DHT22;26324;52.040;11.528;2024-01-30T00:55:55;3.00;80.90
40622;DHT22;26324;52.040;11.528;2024-01-30T00:58:22;3.00;80.90
40622;DHT22;26324;52.040;11.528;2024-01-30T01:00:49;3.00;81.10
40622;DHT22;26324;52.040;11.528;2024-01-30T01:03:17;3.00;81.50
40622;DHT22;26324;52.040;11.528;2024-01-30T01:05:44;2.90;81.90
40622;DHT22;26324;52.040;11.528;2024-01-30T01:08:11;2.80;81.70
40622;DHT22;26324;52.040;11.528;2024-01-30T01:13:06;2.80;81.90
40622;DHT22;26324;52.040;11.528;2024-01-30T01:15:35;2.70;81.80
40622;DHT22;26324;52.040;11.528;2024-01-30T01:18:03;2.80;81.80
40622;DHT22;26324;52.040;11.528;2024-01-30T01:20:30;2.80;81.80
40622;DHT22;26324;52.040;11.528;2024-01-30T01:22:57;2.70;81.60
40622;DHT22;26324;52.040;11.528;2024-01-30T01:25:25;2.60;81.20
40622;DHT22;26324;52.040;11.528;2024-01-30T01:27:52;2.60;81.80
40622;DHT22;26324;52.040;11.528;2024-01-30T01:30:19;2.60;81.40
40622;DHT22;26324;52.040;11.528;2024-01-30T01:32:49;2.60;81.60
40622;DHT22;26324;52.040;11.528;2024-01-30T01:35:24;2.50;81.40
40622;DHT22;26324;52.040;11.528;2024-01-30T01:37:52;2.30;82.10
40622;DHT22;26324;52.040;11.528;2024-01-30T01:40:24;2.10;82.10
40622;DHT22;26324;52.040;11.528;2024-01-30T01:42:52;2.00;82.90
40622;DHT22;26324;52.040;11.528;2024-01-30T01:45:20;1.90;83.40
40622;DHT22;26324;52.040;11.528;2024-01-30T01:47:52;1.80;83.60
40622;DHT22;26324;52.040;11.528;2024-01-30T01:50:23;1.80;83.80
40622;DHT22;26324;52.040;11.528;2024-01-30T01:52:52;1.80;84.30
40622;DHT22;26324;52.040;11.528;2024-01-30T01:55:21;2.10;83.80
40622;DHT22;26324;52.040;11.528;2024-01-30T01:57:49;2.20;83.30
40622;DHT22;26324;52.040;11.528;2024-01-30T02:00:18;2.30;83.70
40622;DHT22;26324;52.040;11.528;2024-01-30T02:02:46;2.40;83.50
40622;DHT22;26324;52.040;11.528;2024-01-30T02:05:15;2.50;82.80
40622;DHT22;26324;52.040;11.528;2024-01-30T02:07:44;2.60;82.30
40622;DHT22;26324;52.040;11.528;2024-01-30T02:10:12;2.60;82.20
40622;DHT22;26324;52.040;11.528;2024-01-30T02:12:40;2.50;82.50
40622;DHT22;26324;52.040;11.528;2024-01-30T02:15:07;2.50;82.90
40622;DHT22;26324;52.040;11.528;2024-01-30T02:17:35;2.40;83.00
40622;DHT22;26324;52.040;11.528;2024-01-30T02:20:04;2.40;83.20
40622;DHT22;26324;52.040;11.528;2024-01-30T02:22:34;2.40;83.10
40622;DHT22;26324;52.040;11.528;2024-01-30T02:25:02;2.40;83.20
40622;DHT22;26324;52.040;11.528;2024-01-30T02:27:30;2.40;83.00
40622;DHT22;26324;52.040;11.528;2024-01-30T02:29:57;2.40;83.30
40622;DHT22;26324;52.040;11.528;2024-01-30T02:32:24;2.40;83.20
40622;DHT22;26324;52.040;11.528;2024-01-30T02:34:51;2.50;83.10
40622;DHT22;26324;52.040;11.528;2024-01-30T02:37:19;2.40;83.00
40622;DHT22;26324;52.040;11.528;2024-01-30T02:39:46;2.20;83.50
40622;DHT22;26324;52.040;11.528;2024-01-30T02:42:14;2.20;83.90
40622;DHT22;26324;52.040;11.528;2024-01-30T02:44:41;2.30;83.80
40622;DHT22;26324;52.040;11.528;2024-01-30T02:47:08;2.30;83.70
40622;DHT22;26324;52.040;11.528;2024-01-30T02:49:35;2.30;83.40
40622;DHT22;26324;52.040;11.528;2024-01-30T02:52:03;2.40;83.20
40622;DHT22;26324;52.040;11.528;2024-01-30T02:54:30;2.40;83.10
40622;DHT22;26324;52.040;11.528;2024-01-30T02:56:58;2.40;83.10
40622;DHT22;26324;52.040;11.528;2024-01-30T02:59:25;2.30;82.80
40622;DHT22;26324;52.040;11.528;2024-01-30T03:01:52;2.10;83.20
40622;DHT22;26324;52.040;11.528;2024-01-30T03:04:25;2.10;83.50
40622;DHT22;26324;52.040;11.528;2024-01-30T03:06:53;2.10;83.20
40622;DHT22;26324;52.040;11.528;2024-01-30T03:09:21;2.20;83.30
40622;DHT22;26324;52.040;11.528;2024-01-30T03:11:48;2.20;83.20
40622;DHT22;26324;52.040;11.528;2024-01-30T03:14:16;2.20;83.40
40622;DHT22;26324;52.040;11.528;2024-01-30T03:16:46;2.10;83.10
40622;DHT22;26324;52.040;11.528;2024-01-30T03:19:13;2.10;83.30
40622;DHT22;26324;52.040;11.528;2024-01-30T03:21:40;2.20;83.20
40622;DHT22;26324;52.040;11.528;2024-01-30T03:24:08;2.10;83.20
40622;DHT22;26324;52.040;11.528;2024-01-30T03:26:36;2.10;83.50
40622;DHT22;26324;52.040;11.528;2024-01-30T03:29:06;1.90;83.30
40622;DHT22;26324;52.040;11.528;2024-01-30T03:31:34;1.70;84.00
40622;DHT22;26324;52.040;11.528;2024-01-30T03:34:02;1.70;84.40
40622;DHT22;26324;52.040;11.528;2024-01-30T03:36:29;1.70;84.70
40622;DHT22;26324;52.040;11.528;2024-01-30T03:39:00;1.80;84.70
40622;DHT22;26324;52.040;11.528;2024-01-30T03:41:27;1.90;84.40
40622;DHT22;26324;52.040;11.528;2024-01-30T03:43:55;2.00;84.30
40622;DHT22;26324;52.040;11.528;2024-01-30T03:46:22;2.00;84.30
40622;DHT22;26324;52.040;11.528;2024-01-30T03:48:50;1.80;83.90
40622;DHT22;26324;52.040;11.528;2024-01-30T03:51:17;1.70;84.50
40622;DHT22;26324;52.040;11.528;2024-01-30T03:53:45;1.70;84.40
40622;DHT22;26324;52.040;11.528;2024-01-30T03:56:15;1.60;84.20
40622;DHT22;26324;52.040;11.528;2024-01-30T03:58:44;1.40;84.50
40622;DHT22;26324;52.040;11.528;2024-01-30T04:01:15;1.50;85.10
40622;DHT22;26324;52.040;11.528;2024-01-30T04:03:42;1.70;85.00
40622;DHT22;26324;52.040;11.528;2024-01-30T04:06:12;1.80;84.60
40622;DHT22;26324;52.040;11.528;2024-01-30T04:08:39;1.90;84.20
40622;DHT22;26324;52.040;11.528;2024-01-30T04:11:07;2.00;84.30
40622;DHT22;26324;52.040;11.528;2024-01-30T04:13:34;1.90;84.20
40622;DHT22;26324;52.040;11.528;2024-01-30T04:16:02;1.90;84.70
40622;DHT22;26324;52.040;11.528;2024-01-30T04:18:29;2.00;84.70
40622;DHT22;26324;52.040;11.528;2024-01-30T04:20:57;2.10;84.60
40622;DHT22;26324;52.040;11.528;2024-01-30T04:23:24;2.10;84.50
40622;DHT22;26324;52.040;11.528;2024-01-30T04:25:52;2.00;84.20
40622;DHT22;26324;52.040;11.528;2024-01-30T04:28:19;2.00;84.60
40622;DHT22;26324;52.040;11.528;2024-01-30T04:30:47;1.80;84.40
40622;DHT22;26324;52.040;11.528;2024-01-30T04:33:15;1.80;84.80
40622;DHT22;26324;52.040;11.528;2024-01-30T04:35:42;1.60;84.90
40622;DHT22;26324;52.040;11.528;2024-01-30T04:38:09;1.70;85.10
40622;DHT22;26324;52.040;11.528;2024-01-30T04:40:37;1.70;85.20
40622;DHT22;26324;52.040;11.528;2024-01-30T04:43:04;1.70;85.50
40622;DHT22;26324;52.040;11.528;2024-01-30T04:45:31;1.60;85.50
40622;DHT22;26324;52.040;11.528;2024-01-30T04:47:59;1.60;85.90
40622;DHT22;26324;52.040;11.528;2024-01-30T04:50:26;1.70;85.90
40622;DHT22;26324;52.040;11.528;2024-01-30T04:52:54;1.90;85.40
40622;DHT22;26324;52.040;11.528;2024-01-30T04:55:21;2.00;85.50
40622;DHT22;26324;52.040;11.528;2024-01-30T04:57:49;2.10;84.70
40622;DHT22;26324;52.040;11.528;2024-01-30T05:00:17;2.20;84.20
40622;DHT22;26324;52.040;11.528;2024-01-30T05:02:44;2.20;84.20
40622;DHT22;26324;52.040;11.528;2024-01-30T05:05:12;2.10;84.20
40622;DHT22;26324;52.040;11.528;2024-01-30T05:07:41;2.10;84.40
40622;DHT22;26324;52.040;11.528;2024-01-30T05:10:08;2.00;83.90
40622;DHT22;26324;52.040;11.528;2024-01-30T05:12:36;1.90;84.60
40622;DHT22;26324;52.040;11.528;2024-01-30T05:15:03;1.70;84.40
40622;DHT22;26324;52.040;11.528;2024-01-30T05:17:31;1.80;84.60
40622;DHT22;26324;52.040;11.528;2024-01-30T05:19:59;1.80;84.70
40622;DHT22;26324;52.040;11.528;2024-01-30T05:22:52;1.90;84.90
40622;DHT22;26324;52.040;11.528;2024-01-30T05:25:19;2.00;84.60
40622;DHT22;26324;52.040;11.528;2024-01-30T05:27:47;2.00;84.40
40622;DHT22;26324;52.040;11.528;2024-01-30T05:30:14;2.00;84.50
40622;DHT22;26324;52.040;11.528;2024-01-30T05:32:42;1.90;84.30
40622;DHT22;26324;52.040;11.528;2024-01-30T05:35:10;1.70;84.30
40622;DHT22;26324;52.040;11.528;2024-01-30T05:37:44;1.80;85.00
40622;DHT22;26324;52.040;11.528;2024-01-30T05:40:11;1.90;84.80
40622;DHT22;26324;52.040;11.528;2024-01-30T05:42:38;1.90;84.70
40622;DHT22;26324;52.040;11.528;2024-01-30T05:45:06;1.90;84.60
40622;DHT22;26324;52.040;11.528;2024-01-30T05:47:34;1.70;84.60
40622;DHT22;26324;52.040;11.528;2024-01-30T05:50:07;1.70;84.90
40622;DHT22;26324;52.040;11.528;2024-01-30T05:52:34;1.60;85.10
40622;DHT22;26324;52.040;11.528;2024-01-30T05:55:01;1.60;84.70
40622;DHT22;26324;52.040;11.528;2024-01-30T05:57:30;1.50;85.00
40622;DHT22;26324;52.040;11.528;2024-01-30T05:59:57;1.50;85.10
40622;DHT22;26324;52.040;11.528;2024-01-30T06:02:25;1.30;85.20
40622;DHT22;26324;52.040;11.528;2024-01-30T06:04:52;1.20;85.60
40622;DHT22;26324;52.040;11.528;2024-01-30T06:07:19;1.20;86.10
40622;DHT22;26324;52.040;11.528;2024-01-30T06:09:47;1.30;86.10
40622;DHT22;26324;52.040;11.528;2024-01-30T06:12:14;1.30;86.20
40622;DHT22;26324;52.040;11.528;2024-01-30T06:14:46;1.50;86.10
40622;DHT22;26324;52.040;11.528;2024-01-30T06:17:14;1.50;85.90
40622;DHT22;26324;52.040;11.528;2024-01-30T06:19:41;1.60;86.20
40622;DHT22;26324;52.040;11.528;2024-01-30T06:22:08;1.70;86.30
40622;DHT22;26324;52.040;11.528;2024-01-30T06:24:36;1.80;87.00
40622;DHT22;26324;52.040;11.528;2024-01-30T06:27:03;2.00;88.00
40622;DHT22;26324;52.040;11.528;2024-01-30T06:29:31;2.20;89.40
40622;DHT22;26324;52.040;11.528;2024-01-30T06:31:59;2.30;88.70
40622;DHT22;26324;52.040;11.528;2024-01-30T06:34:26;2.30;88.50
40622;DHT22;26324;52.040;11.528;2024-01-30T06:36:54;2.40;88.30
40622;DHT22;26324;52.040;11.528;2024-01-30T06:39:21;2.40;88.40
40622;DHT22;26324;52.040;11.528;2024-01-30T06:41:48;2.50;88.60
40622;DHT22;26324;52.040;11.528;2024-01-30T06:44:16;2.60;88.60
40622;DHT22;26324;52.040;11.528;2024-01-30T06:46:43;2.60;88.80
40622;DHT22;26324;52.040;11.528;2024-01-30T06:49:11;2.70;88.70
40622;DHT22;26324;52.040;11.528;2024-01-30T06:51:38;2.80;87.70
40622;DHT22;26324;52.040;11.528;2024-01-30T06:54:05;2.80;86.90
40622;DHT22;26324;52.040;11.528;2024-01-30T06:56:33;2.70;86.90
40622;DHT22;26324;52.040;11.528;2024-01-30T06:59:01;2.70;86.40
40622;DHT22;26324;52.040;11.528;2024-01-30T07:01:29;2.70;85.90
40622;DHT22;26324;52.040;11.528;2024-01-30T07:04:04;2.60;85.60
40622;DHT22;26324;52.040;11.528;2024-01-30T07:06:31;2.40;86.00
40622;DHT22;26324;52.040;11.528;2024-01-30T07:09:05;2.20;86.50
40622;DHT22;26324;52.040;11.528;2024-01-30T07:11:32;2.10;86.40
40622;DHT22;26324;52.040;11.528;2024-01-30T07:14:00;2.00;86.70
40622;DHT22;26324;52.040;11.528;2024-01-30T07:16:30;2.10;86.70
40622;DHT22;26324;52.040;11.528;2024-01-30T07:18:58;2.00;86.50
40622;DHT22;26324;52.040;11.528;2024-01-30T07:21:25;2.00;86.40
40622;DHT22;26324;52.040;11.528;2024-01-30T07:23:55;2.10;86.80
40622;DHT22;26324;52.040;11.528;2024-01-30T07:26:23;2.20;86.50
40622;DHT22;26324;52.040;11.528;2024-01-30T07:28:50;2.10;86.20
40622;DHT22;26324;52.040;11.528;2024-01-30T07:31:18;2.10;86.20
40622;DHT22;26324;52.040;11.528;2024-01-30T07:33:48;2.00;86.40
40622;DHT22;26324;52.040;11.528;2024-01-30T07:36:21;2.00;86.30
40622;DHT22;26324;52.040;11.528;2024-01-30T07:38:49;2.00;86.40
40622;DHT22;26324;52.040;11.528;2024-01-30T07:41:19;2.00;86.40
40622;DHT22;26324;52.040;11.528;2024-01-30T07:43:47;2.10;86.50
40622;DHT22;26324;52.040;11.528;2024-01-30T07:46:20;2.20;86.40
40622;DHT22;26324;52.040;11.528;2024-01-30T07:48:55;2.20;86.30
40622;DHT22;26324;52.040;11.528;2024-01-30T07:51:24;2.20;86.30
40622;DHT22;26324;52.040;11.528;2024-01-30T07:53:51;2.20;86.50
40622;DHT22;26324;52.040;11.528;2024-01-30T07:56:18;2.30;87.00
40622;DHT22;26324;52.040;11.528;2024-01-30T07:58:46;2.40;87.30
40622;DHT22;26324;52.040;11.528;2024-01-30T08:01:19;2.50;87.20
40622;DHT22;26324;52.040;11.528;2024-01-30T08:03:47;2.60;86.70
40622;DHT22;26324;52.040;11.528;2024-01-30T08:06:24;2.70;87.10
40622;DHT22;26324;52.040;11.528;2024-01-30T08:08:51;2.80;87.40
40622;DHT22;26324;52.040;11.528;2024-01-30T08:11:21;3.00;87.50
40622;DHT22;26324;52.040;11.528;2024-01-30T08:13:53;3.20;87.20
40622;DHT22;26324;52.040;11.528;2024-01-30T08:16:20;3.40;86.70
40622;DHT22;26324;52.040;11.528;2024-01-30T08:18:48;3.60;86.60
40622;DHT22;26324;52.040;11.528;2024-01-30T08:21:29;3.80;86.20
40622;DHT22;26324;52.040;11.528;2024-01-30T08:24:04;4.00;85.50
40622;DHT22;26324;52.040;11.528;2024-01-30T08:26:32;4.20;85.00
40622;DHT22;26324;52.040;11.528;2024-01-30T08:29:00;4.30;84.50
40622;DHT22;26324;52.040;11.528;2024-01-30T08:31:30;4.40;84.20
40622;DHT22;26324;52.040;11.528;2024-01-30T08:34:01;4.60;83.90
40622;DHT22;26324;52.040;11.528;2024-01-30T08:36:29;4.70;83.40
40622;DHT22;26324;52.040;11.528;2024-01-30T08:38:56;4.90;82.70
40622;DHT22;26324;52.040;11.528;2024-01-30T08:41:29;5.00;82.60
40622;DHT22;26324;52.040;11.528;2024-01-30T08:43:56;5.10;82.40
40622;DHT22;26324;52.040;11.528;2024-01-30T08:46:24;5.20;82.20
40622;DHT22;26324;52.040;11.528;2024-01-30T08:48:51;5.30;81.80
40622;DHT22;26324;52.040;11.528;2024-01-30T08:51:19;5.40;81.60
40622;DHT22;26324;52.040;11.528;2024-01-30T08:53:46;5.50;81.20
40622;DHT22;26324;52.040;11.528;2024-01-30T08:56:14;5.60;81.10
40622;DHT22;26324;52.040;11.528;2024-01-30T08:58:43;5.70;80.50
40622;DHT22;26324;52.040;11.528;2024-01-30T09:01:10;5.80;80.30
40622;DHT22;26324;52.040;11.528;2024-01-30T09:03:42;5.80;79.90
40622;DHT22;26324;52.040;11.528;2024-01-30T09:06:13;5.90;80.00
40622;DHT22;26324;52.040;11.528;2024-01-30T09:08:40;6.00;79.60
40622;DHT22;26324;52.040;11.528;2024-01-30T09:11:14;6.10;79.60
40622;DHT22;26324;52.040;11.528;2024-01-30T09:13:42;6.20;79.40
40622;DHT22;26324;52.040;11.528;2024-01-30T09:16:10;6.30;79.10
40622;DHT22;26324;52.040;11.528;2024-01-30T09:18:46;6.30;79.00
40622;DHT22;26324;52.040;11.528;2024-01-30T09:21:14;6.40;79.10
40622;DHT22;26324;52.040;11.528;2024-01-30T09:23:41;6.40;78.70
40622;DHT22;26324;52.040;11.528;2024-01-30T09:26:08;6.50;78.60
40622;DHT22;26324;52.040;11.528;2024-01-30T09:28:52;6.70;78.10
40622;DHT22;26324;52.040;11.528;2024-01-30T09:31:19;6.80;77.50
40622;DHT22;26324;52.040;11.528;2024-01-30T09:33:52;6.90;77.00
40622;DHT22;26324;52.040;11.528;2024-01-30T09:36:21;6.90;77.50
40622;DHT22;26324;52.040;11.528;2024-01-30T09:38:49;7.00;77.50
40622;DHT22;26324;52.040;11.528;2024-01-30T09:41:27;7.10;76.90
40622;DHT22;26324;52.040;11.528;2024-01-30T09:43:57;7.10;76.60
40622;DHT22;26324;52.040;11.528;2024-01-30T09:46:33;7.20;77.00
40622;DHT22;26324;52.040;11.528;2024-01-30T09:49:02;7.30;77.10
40622;DHT22;26324;52.040;11.528;2024-01-30T09:51:30;7.40;76.90
40622;DHT22;26324;52.040;11.528;2024-01-30T09:53:58;7.50;76.60
40622;DHT22;26324;52.040;11.528;2024-01-30T09:56:25;7.50;76.30
40622;DHT22;26324;52.040;11.528;2024-01-30T09:58:55;7.60;76.20
40622;DHT22;26324;52.040;11.528;2024-01-30T10:01:28;7.70;75.80
40622;DHT22;26324;52.040;11.528;2024-01-30T10:03:56;7.90;76.00
40622;DHT22;26324;52.040;11.528;2024-01-30T10:06:24;8.10;75.30
40622;DHT22;26324;52.040;11.528;2024-01-30T10:08:52;8.10;74.90
40622;DHT22;26324;52.040;11.528;2024-01-30T10:11:19;8.10;75.50
40622;DHT22;26324;52.040;11.528;2024-01-30T10:13:47;8.20;75.40
40622;DHT22;26324;52.040;11.528;2024-01-30T10:16:14;8.20;75.50
40622;DHT22;26324;52.040;11.528;2024-01-30T10:18:50;8.20;75.10
40622;DHT22;26324;52.040;11.528;2024-01-30T10:21:18;8.30;75.10
40622;DHT22;26324;52.040;11.528;2024-01-30T10:23:45;8.40;75.20
40622;DHT22;26324;52.040;11.528;2024-01-30T10:26:16;8.50;74.80
40622;DHT22;26324;52.040;11.528;2024-01-30T10:28:44;8.50;75.40
40622;DHT22;26324;52.040;11.528;2024-01-30T10:31:23;8.60;74.80
40622;DHT22;26324;52.040;11.528;2024-01-30T10:33:53;8.60;74.80
40622;DHT22;26324;52.040;11.528;2024-01-30T10:36:40;8.60;74.90
40622;DHT22;26324;52.040;11.528;2024-01-30T10:39:11;8.80;75.00
40622;DHT22;26324;52.040;11.528;2024-01-30T10:41:55;8.90;74.80
40622;DHT22;26324;52.040;11.528;2024-01-30T10:44:27;8.80;74.90
40622;DHT22;26324;52.040;11.528;2024-01-30T10:47:00;8.80;75.10
40622;DHT22;26324;52.040;11.528;2024-01-30T10:49:30;8.80;75.10
40622;DHT22;26324;52.040;11.528;2024-01-30T10:51:58;8.80;75.40
40622;DHT22;26324;52.040;11.528;2024-01-30T10:54:27;8.90;75.40
40622;DHT22;26324;52.040;11.528;2024-01-30T10:56:57;9.00;75.20
40622;DHT22;26324;52.040;11.528;2024-01-30T10:59:25;9.10;75.10
40622;DHT22;26324;52.040;11.528;2024-01-30T11:02:01;9.20;74.80
40622;DHT22;26324;52.040;11.528;2024-01-30T11:04:41;9.30;74.80
40622;DHT22;26324;52.040;11.528;2024-01-30T11:07:19;9.30;74.20
40622;DHT22;26324;52.040;11.528;2024-01-30T11:09:51;9.40;74.50
40622;DHT22;26324;52.040;11.528;2024-01-30T11:12:25;9.50;74.20
40622;DHT22;26324;52.040;11.528;2024-01-30T11:15:06;9.50;74.20
40622;DHT22;26324;52.040;11.528;2024-01-30T11:17:51;9.50;74.40
40622;DHT22;26324;52.040;11.528;2024-01-30T11:20:29;9.80;74.50
40622;DHT22;26324;52.040;11.528;2024-01-30T11:23:11;10.10;73.70
40622;DHT22;26324;52.040;11.528;2024-01-30T11:25:39;10.30;73.40
40622;DHT22;26324;52.040;11.528;2024-01-30T11:28:13;10.50;72.10
40622;DHT22;26324;52.040;11.528;2024-01-30T11:30:41;10.60;71.90
40622;DHT22;26324;52.040;11.528;2024-01-30T11:33:10;11.00;70.80
40622;DHT22;26324;52.040;11.528;2024-01-30T11:35:40;11.10;71.30
40622;DHT22;26324;52.040;11.528;2024-01-30T11:38:16;11.20;71.10
40622;DHT22;26324;52.040;11.528;2024-01-30T11:40:43;11.50;69.90
40622;DHT22;26324;52.040;11.528;2024-01-30T11:46:40;11.80;68.60
40622;DHT22;26324;52.040;11.528;2024-01-30T11:49:07;11.60;69.00
40622;DHT22;26324;52.040;11.528;2024-01-30T11:51:37;11.70;68.70
40622;DHT22;26324;52.040;11.528;2024-01-30T11:54:10;11.70;69.00
40622;DHT22;26324;52.040;11.528;2024-01-30T11:56:37;11.70;68.90
40622;DHT22;26324;52.040;11.528;2024-01-30T11:59:07;11.60;69.30
40622;DHT22;26324;52.040;11.528;2024-01-30T12:01:35;11.50;70.10
40622;DHT22;26324;52.040;11.528;2024-01-30T12:04:04;11.60;70.20
40622;DHT22;26324;52.040;11.528;2024-01-30T12:06:36;11.50;70.40
40622;DHT22;26324;52.040;11.528;2024-01-30T12:09:04;11.50;70.40
40622;DHT22;26324;52.040;11.528;2024-01-30T12:11:31;11.50;70.60
40622;DHT22;26324;52.040;11.528;2024-01-30T12:13:59;11.50;70.60
40622;DHT22;26324;52.040;11.528;2024-01-30T12:16:26;11.60;70.50
40622;DHT22;26324;52.040;11.528;2024-01-30T12:19:00;11.80;70.30
40622;DHT22;26324;52.040;11.528;2024-01-30T12:21:34;11.90;70.10
40622;DHT22;26324;52.040;11.528;2024-01-30T12:24:17;12.20;68.90
40622;DHT22;26324;52.040;11.528;2024-01-30T12:26:48;12.40;68.90
40622;DHT22;26324;52.040;11.528;2024-01-30T12:29:16;12.60;67.90
40622;DHT22;26324;52.040;11.528;2024-01-30T12:31:44;12.80;67.80
40622;DHT22;26324;52.040;11.528;2024-01-30T12:34:14;13.00;67.30
40622;DHT22;26324;52.040;11.528;2024-01-30T12:36:44;13.00;66.10
40622;DHT22;26324;52.040;11.528;2024-01-30T12:39:12;13.10;66.20
40622;DHT22;26324;52.040;11.528;2024-01-30T12:41:41;13.10;65.60
40622;DHT22;26324;52.040;11.528;2024-01-30T12:44:09;13.00;66.10
40622;DHT22;26324;52.040;11.528;2024-01-30T12:46:36;12.90;66.20
40622;DHT22;26324;52.040;11.528;2024-01-30T12:49:04;13.00;66.10
40622;DHT22;26324;52.040;11.528;2024-01-30T12:51:34;12.90;66.40
40622;DHT22;26324;52.040;11.528;2024-01-30T12:54:06;13.00;66.70
40622;DHT22;26324;52.040;11.528;2024-01-30T12:56:33;12.90;66.60
40622;DHT22;26324;52.040;11.528;2024-01-30T12:59:01;13.10;66.90
40622;DHT22;26324;52.040;11.528;2024-01-30T13:01:36;13.10;66.90
40622;DHT22;26324;52.040;11.528;2024-01-30T13:04:11;13.30;67.40
40622;DHT22;26324;52.040;11.528;2024-01-30T13:06:40;13.60;67.00
40622;DHT22;26324;52.040;11.528;2024-01-30T13:09:08;13.60;66.50
40622;DHT22;26324;52.040;11.528;2024-01-30T13:11:55;13.50;66.80
40622;DHT22;26324;52.040;11.528;2024-01-30T13:14:24;13.50;67.30
40622;DHT22;26324;52.040;11.528;2024-01-30T13:16:52;13.50;67.00
40622;DHT22;26324;52.040;11.528;2024-01-30T13:19:20;13.70;67.10
40622;DHT22;26324;52.040;11.528;2024-01-30T13:21:47;13.60;67.00
40622;DHT22;26324;52.040;11.528;2024-01-30T13:24:15;13.70;67.20
40622;DHT22;26324;52.040;11.528;2024-01-30T13:26:44;13.60;67.10
40622;DHT22;26324;52.040;11.528;2024-01-30T13:29:12;13.70;67.30
40622;DHT22;26324;52.040;11.528;2024-01-30T13:31:41;13.90;66.50
40622;DHT22;26324;52.040;11.528;2024-01-30T13:34:16;14.00;65.80
40622;DHT22;26324;52.040;11.528;2024-01-30T13:36:57;14.10;66.10
40622;DHT22;26324;52.040;11.528;2024-01-30T13:39:25;14.40;64.90
40622;DHT22;26324;52.040;11.528;2024-01-30T14:02:18;14.10;62.90
40622;DHT22;26324;52.040;11.528;2024-01-30T14:04:48;13.60;64.70
40622;DHT22;26324;52.040;11.528;2024-01-30T14:07:16;13.30;65.00
40622;DHT22;26324;52.040;11.528;2024-01-30T14:09:58;13.30;65.40
40622;DHT22;26324;52.040;11.528;2024-01-30T14:12:31;13.10;66.00
40622;DHT22;26324;52.040;11.528;2024-01-30T14:14:59;13.30;66.00
40622;DHT22;26324;52.040;11.528;2024-01-30T14:17:37;13.60;65.50
40622;DHT22;26324;52.040;11.528;2024-01-30T14:20:06;13.80;65.10
40622;DHT22;26324;52.040;11.528;2024-01-30T14:22:40;14.00;65.00
40622;DHT22;26324;52.040;11.528;2024-01-30T14:38:15;14.50;62.30
40622;DHT22;26324;52.040;11.528;2024-01-30T14:40:42;14.30;62.50
40622;DHT22;26324;52.040;11.528;2024-01-30T14:43:09;13.80;64.70
40622;DHT22;26324;52.040;11.528;2024-01-30T14:45:37;13.40;66.10
40622;DHT22;26324;52.040;11.528;2024-01-30T14:48:04;13.30;66.70
40622;DHT22;26324;52.040;11.528;2024-01-30T15:02:57;13.10;67.20
40622;DHT22;26324;52.040;11.528;2024-01-30T15:05:32;12.50;68.70
40622;DHT22;26324;52.040;11.528;2024-01-30T15:08:04;12.10;70.30
40622;DHT22;26324;52.040;11.528;2024-01-30T15:10:37;12.10;70.80
40622;DHT22;26324;52.040;11.528;2024-01-30T15:13:15;12.40;70.00
40622;DHT22;26324;52.040;11.528;2024-01-30T15:20:40;12.30;69.80
40622;DHT22;26324;52.040;11.528;2024-01-30T15:23:08;11.80;71.10
40622;DHT22;26324;52.040;11.528;2024-01-30T15:25:37;11.60;72.40
40622;DHT22;26324;52.040;11.528;2024-01-30T15:28:05;11.30;73.40
40622;DHT22;26324;52.040;11.528;2024-01-30T15:30:33;11.20;73.90
40622;DHT22;26324;52.040;11.528;2024-01-30T15:33:11;11.20;74.10
40622;DHT22;26324;52.040;11.528;2024-01-30T15:35:38;11.20;74.30
40622;DHT22;26324;52.040;11.528;2024-01-30T15:38:14;11.10;74.70
40622;DHT22;26324;52.040;11.528;2024-01-30T15:40:42;11.10;74.80
40622;DHT22;26324;52.040;11.528;2024-01-30T15:43:09;11.10;75.00
40622;DHT22;26324;52.040;11.528;2024-01-30T15:45:37;11.10;75.00
40622;DHT22;26324;52.040;11.528;2024-01-30T15:48:05;10.80;75.60
40622;DHT22;26324;52.040;11.528;2024-01-30T15:50:33;10.80;75.70
40622;DHT22;26324;52.040;11.528;2024-01-30T15:53:06;10.80;76.00
40622;DHT22;26324;52.040;11.528;2024-01-30T15:55:38;10.70;76.50
40622;DHT22;26324;52.040;11.528;2024-01-30T15:58:06;10.60;76.50
40622;DHT22;26324;52.040;11.528;2024-01-30T16:00:36;10.60;76.60
40622;DHT22;26324;52.040;11.528;2024-01-30T16:03:04;10.50;76.70
40622;DHT22;26324;52.040;11.528;2024-01-30T16:05:34;10.40;76.80
40622;DHT22;26324;52.040;11.528;2024-01-30T16:08:06;10.40;77.30
40622;DHT22;26324;52.040;11.528;2024-01-30T16:10:39;10.20;77.50
40622;DHT22;26324;52.040;11.528;2024-01-30T16:13:17;10.10;78.20
40622;DHT22;26324;52.040;11.528;2024-01-30T16:15:50;10.10;78.50
40622;DHT22;26324;52.040;11.528;2024-01-30T16:18:17;10.00;78.80
40622;DHT22;26324;52.040;11.528;2024-01-30T16:20:45;9.90;78.90
40622;DHT22;26324;52.040;11.528;2024-01-30T16:23:12;10.00;78.70
40622;DHT22;26324;52.040;11.528;2024-01-30T16:25:39;9.90;78.30
40622;DHT22;26324;52.040;11.528;2024-01-30T16:28:10;9.90;78.60
40622;DHT22;26324;52.040;11.528;2024-01-30T16:30:37;10.00;78.90
40622;DHT22;26324;52.040;11.528;2024-01-30T16:33:04;10.00;79.30
40622;DHT22;26324;52.040;11.528;2024-01-30T16:50:31;10.50;76.80
40622;DHT22;26324;52.040;11.528;2024-01-30T16:52:59;9.80;79.00